createdAt,value
2022-11-14T00:07:37.268Z,4.41
2022-11-14T00:17:38.575Z,4.41
2022-11-14T00:27:37.626Z,4.56
2022-11-14T00:37:38.881Z,4.56
2022-11-14T00:47:38.110Z,3.57
2022-11-14T00:57:39.993Z,3.71
2022-11-14T01:07:38.427Z,3.71
2022-11-14T01:17:40.036Z,3.71
2022-11-14T01:27:38.916Z,3.71
2022-11-14T01:37:41.127Z,4.71
2022-11-14T01:47:39.176Z,4.56
2022-11-14T01:57:39.549Z,4.56
2022-11-14T02:07:39.635Z,4.56
2022-11-14T02:17:39.929Z,4.56
2022-11-14T02:27:39.971Z,4.56
2022-11-14T02:37:40.403Z,4.56
2022-11-14T02:47:40.642Z,4.56
2022-11-14T02:57:40.551Z,4.71
2022-11-14T03:07:40.773Z,4.71
2022-11-14T03:17:41.145Z,4.56
2022-11-14T03:27:41.327Z,4.56
2022-11-14T03:37:41.704Z,4.56
2022-11-14T03:47:41.653Z,4.56
2022-11-14T03:57:41.881Z,4.56
2022-11-14T04:07:41.906Z,4.56
2022-11-14T04:17:43.265Z,4.56
2022-11-14T04:27:42.295Z,4.56
2022-11-14T04:37:42.605Z,4.56
2022-11-14T04:47:42.642Z,4.56
2022-11-14T04:57:42.976Z,5.26
2022-11-14T05:07:43.006Z,4.95
2022-11-14T05:17:43.355Z,4.27
2022-11-14T05:27:43.484Z,5.56
2022-11-14T05:37:43.722Z,5.46
2022-11-14T05:47:43.796Z,5.11
2022-11-14T05:57:43.995Z,4.94
2022-11-14T06:07:44.074Z,5.11
2022-11-14T06:17:44.351Z,5.11
2022-11-14T06:27:44.391Z,5.97
2022-11-14T06:37:44.644Z,8.24
2022-11-14T06:47:44.878Z,7.31
2022-11-14T06:57:45.211Z,7.12
2022-11-14T07:07:45.237Z,6.54
2022-11-14T07:17:45.575Z,7.70
2022-11-14T07:27:45.622Z,7.31
2022-11-14T07:37:45.943Z,7.10
2022-11-14T07:47:45.962Z,7.86
2022-11-14T07:57:49.158Z,7.51
2022-11-14T08:07:46.321Z,7.12
2022-11-14T08:17:46.619Z,7.51
2022-11-14T08:27:46.648Z,7.65
2022-11-14T08:37:46.976Z,6.93
2022-11-14T08:47:46.996Z,8.28
2022-11-14T08:57:49.569Z,7.90
2022-11-14T09:07:47.446Z,8.27
2022-11-14T09:17:47.694Z,7.90
2022-11-14T09:27:47.915Z,7.90
2022-11-14T09:37:48.179Z,8.47
2022-11-14T09:47:48.402Z,8.28
2022-11-14T09:57:48.636Z,8.87
2022-11-14T10:07:48.860Z,8.28
2022-11-14T10:17:49.209Z,7.42
2022-11-14T10:27:55.328Z,7.45
2022-11-14T10:37:50.496Z,8.43
2022-11-14T10:47:50.317Z,8.43
2022-11-14T10:57:49.967Z,8.27
2022-11-14T11:07:50.245Z,8.10
2022-11-14T11:17:50.261Z,7.76
2022-11-14T11:27:50.520Z,8.75
2022-11-14T11:37:50.740Z,8.22
2022-11-14T11:47:50.979Z,8.22
2022-11-14T11:57:51.268Z,8.40
2022-11-14T12:07:51.355Z,8.57
2022-11-14T12:17:51.377Z,8.57
2022-11-14T12:27:53.940Z,8.92
2022-11-14T12:37:55.635Z,8.92
2022-11-14T12:47:52.062Z,8.57
2022-11-14T12:57:52.380Z,9.55
2022-11-14T13:07:52.411Z,9.38
2022-11-14T13:17:52.749Z,9.63
2022-11-14T13:28:07.332Z,9.44
2022-11-14T13:37:56.359Z,6.54
2022-11-14T13:47:53.307Z,6.42
2022-11-14T13:57:53.348Z,4.99
2022-11-14T14:07:53.466Z,4.65
2022-11-14T14:17:53.510Z,4.07
2022-11-14T14:27:53.857Z,4.07
2022-11-14T14:38:02.927Z,5.22
2022-11-14T14:47:53.949Z,4.56
2022-11-14T14:57:54.310Z,4.83
2022-11-14T15:07:54.338Z,6.35
2022-11-14T15:17:54.606Z,5.61
2022-11-14T15:27:54.612Z,5.86
2022-11-14T15:37:54.936Z,4.67
2022-11-14T15:47:54.977Z,4.56
2022-11-14T15:58:20.966Z,4.56
2022-11-14T22:09:08.161Z,3.99
2022-11-14T22:19:08.369Z,3.05
2022-11-14T22:29:08.625Z,2.80
2022-11-14T22:39:08.855Z,3.05
2022-11-14T22:49:09.119Z,2.58
2022-11-14T22:59:09.362Z,3.05
2022-11-14T23:09:09.756Z,2.35
2022-11-14T23:19:11.614Z,2.58
2022-11-14T23:29:12.177Z,2.58
2022-11-14T23:39:10.292Z,2.35
2022-11-14T23:49:10.488Z,2.58
2022-11-14T23:59:10.656Z,2.82
